Noxville, Texas
Current Conditions -  °F | °C
As of 9:15 PM on Sunday 21 Dec 2014 (Local Time) from KT82 Reporting Station
Overcast Overcast  
Wind Chill: 45°   Ceiling: 1000
Heat Index: 50°   Visibility: 10mi
Dew Point: 46°   Wind: 12mph
Humidity: 87%   Direction: 210°SSW
Pressure: 29.85"   Gusts: 17mph
Location:  30.3145°N, 99.2255°W
Report Text: KT82 220315Z AUTO 21010G15KT 10SM OVC010 10/08 A2985 RMK AO2 T00980078
Loading
Personal Weather Stations






























Interactive Weather Map New forecast layout! Learn more

10-Day Weather Forecast

Advertisements
Track Severe Weather on mobile